Date,TemperatureHighF,TemperatureAvgF,TemperatureLowF,DewpointHighF,DewpointAvgF,DewpointLowF,HumidityHigh,HumidityAvg,HumidityLow,PressureMaxIn,PressureMinIn,WindSpeedMaxMPH,WindSpeedAvgMPH,GustSpeedMaxMPH,PrecipitationSumIn
2014-1-1,64,5,60,-100,-100,-100,0,0,100,30.28,30.09,12,-79,16,0.00
2014-1-2,70,2,64,-100,-100,-100,0,0,100,30.09,29.89,19,-20,27,0.00
2014-1-3,50,2,46,-100,-100,-100,0,0,100,30.31,30.02,20,-27,28,0.00
2014-1-4,47,1,47,-100,-100,-100,0,0,100,30.29,30.09,11,-6,19,0.00
2014-1-5,64,2,61,-100,-100,-100,0,0,100,30.11,30.00,9,-21,13,0.00
2014-1-6,70,5,50,-100,-100,-100,0,0,100,30.37,29.99,20,-67,30,0.00
2014-1-7,46,2,44,-100,-100,-100,0,0,100,30.46,30.32,17,-17,25,0.00
2014-1-8,-200,0,200,-100,-100,-100,0,0,100,30.44,30.28,15,9,20,0.00
2014-1-9,57,2,56,-100,-100,-100,0,0,100,30.31,30.21,9,-33,14,0.00
2014-1-10,77,4,66,-100,-100,-100,0,0,100,30.23,30.09,5,-56,7,0.00
2014-1-11,71,2,65,-100,-100,-100,0,0,100,30.11,29.99,20,-15,24,0.00
2014-1-12,60,3,57,-100,-100,-100,0,0,100,30.24,30.06,12,-44,20,0.00
2014-1-13,60,2,57,-100,-100,-100,0,0,100,30.21,30.00,16,-26,20,0.00
2014-1-14,66,1,66,-100,-100,-100,0,0,100,30.07,29.96,16,-3,22,0.00
2014-1-15,62,2,58,-100,-100,-100,0,0,100,30.11,30.00,19,-33,35,0.00
2014-1-16,49,1,49,-100,-100,-100,0,0,100,30.21,30.03,16,-5,26,0.00
2014-1-17,58,1,48,-100,-100,-100,0,0,100,30.27,30.15,13,-22,15,0.00
2014-1-18,58,1,58,-100,-100,-100,0,0,100,30.33,30.15,14,-6,19,0.00
2014-1-19,62,2,56,-100,-100,-100,0,0,100,30.28,30.17,13,-34,16,0.00
2014-1-20,56,2,56,-100,-100,-100,0,0,100,30.20,30.08,12,-24,15,0.00
2014-1-21,66,3,60,-100,-100,-100,0,0,100,30.09,29.88,19,-41,29,0.00
2014-1-22,54,1,48,-100,-100,-100,0,0,100,30.24,29.98,14,-19,21,0.00
2014-1-23,57,2,45,-100,-100,-100,0,0,100,30.39,30.21,10,-34,16,0.00
2014-1-24,54,3,46,-100,-100,-100,0,0,100,30.50,30.32,15,-58,24,0.00
2014-1-25,63,1,48,-100,-100,-100,0,0,100,30.33,30.08,11,-21,15,0.00
2014-1-26,60,2,59,-100,-100,-100,0,0,100,30.12,30.02,8,-21,12,0.00
2014-1-27,64,3,60,-100,-100,-100,0,0,100,30.06,29.98,10,-38,13,0.00
2014-1-28,61,2,59,-100,-100,-100,0,0,100,30.10,30.01,16,-20,18,0.00
2014-1-29,59,2,50,-100,-100,-100,0,0,100,30.22,30.02,16,-35,21,0.00
2014-1-30,52,1,48,-100,-100,-100,0,0,100,30.22,30.12,12,-16,16,0.00
2014-1-31,57,1,57,-100,-100,-100,0,0,100,30.15,30.06,11,-7,16,0.00
2014-2-1,71,2,60,-100,-100,-100,0,0,100,30.16,30.07,9,-22,13,0.00
2014-2-2,79,4,63,-100,-100,-100,0,0,100,30.19,30.08,10,-58,13,0.00
2014-2-3,68,2,66,-100,-100,-100,0,0,100,30.16,30.07,15,-23,17,0.00
2014-2-4,78,4,64,-100,-100,-100,0,0,100,30.16,30.04,11,-53,13,0.00
2014-2-5,72,4,68,-100,-100,-100,0,0,100,30.11,30.04,16,-46,22,0.00
2014-2-6,67,6,60,-100,-100,-100,0,0,100,30.19,30.05,16,-78,19,0.00
2014-2-7,54,1,54,-100,-100,-100,0,0,100,30.20,30.14,16,-8,19,0.00
2014-2-8,60,2,58,-100,-100,-100,0,0,100,30.15,30.08,11,-37,14,0.00
2014-2-9,66,3,56,-100,-100,-100,0,0,100,30.17,30.06,9,-45,14,0.00
2014-2-10,61,2,61,-100,-100,-100,0,0,100,30.14,30.05,10,-22,14,0.00
2014-2-11,61,1,61,-100,-100,-100,0,0,100,30.10,30.03,10,-10,13,0.00
2014-2-12,65,2,59,-100,-100,-100,0,0,100,30.07,29.74,23,-23,33,0.00
2014-2-13,65,4,57,-100,-100,-100,0,0,100,30.01,29.74,21,-60,27,0.00
2014-2-14,57,2,56,-100,-100,-100,0,0,100,30.10,29.97,11,-28,16,0.00
2014-2-15,63,3,60,-100,-100,-100,0,0,100,30.17,29.94,14,-41,19,0.00
2014-2-16,54,1,51,-100,-100,-100,0,0,100,30.22,30.13,10,-20,12,0.00
2014-2-17,74,2,56,-100,-100,-100,0,0,100,30.25,30.17,8,-26,10,0.00
2014-2-18,-200,0,200,-100,-100,-100,0,0,100,30.26,30.19,9,4,13,0.00
2014-2-19,65,0,200,-100,-100,-100,0,0,100,30.21,30.10,11,5,14,0.00
2014-2-20,78,4,65,-100,-100,-100,0,0,100,30.16,30.05,13,-56,17,0.00
2014-2-21,71,1,71,-100,-100,-100,0,0,100,30.07,30.02,21,-6,25,0.00
2014-2-22,75,2,69,-100,-100,-100,0,0,100,30.12,30.03,10,-23,14,0.00
2014-2-23,-200,0,200,-100,-100,-100,0,0,100,30.10,30.01,13,6,18,0.00
2014-2-24,73,2,68,-100,-100,-100,0,0,100,30.09,29.93,15,-23,18,0.00
2014-2-25,70,4,66,-100,-100,-100,0,0,100,30.08,29.97,10,-48,16,0.00
2014-2-26,73,3,64,-100,-100,-100,0,0,100,30.00,29.75,19,-35,26,0.00
2014-2-27,60,2,55,-100,-100,-100,0,0,100,29.99,29.81,12,-37,17,0.00
2014-2-28,58,1,58,-100,-100,-100,0,0,100,30.13,29.96,12,-8,15,0.00
2014-3-1,64,2,57,-100,-100,-100,0,0,100,30.25,30.09,9,-34,13,0.00
2014-3-2,76,4,62,-100,-100,-100,0,0,100,30.23,30.08,12,-59,15,0.00
2014-3-3,73,39,65,-100,-100,-100,0,0,100,30.09,30.01,13,5,18,0.00
2014-3-4,75,4,67,-100,-100,-100,0,0,100,30.07,29.99,12,-15,17,0.00
2014-3-5,72,3,65,-100,-100,-100,0,0,100,30.06,29.96,8,-37,12,0.00
2014-3-6,69,2,66,-100,-100,-100,0,0,100,30.02,29.75,20,-15,25,0.00
2014-3-7,59,1,59,-100,-100,-100,0,0,100,30.08,29.79,17,-5,23,0.00
2014-3-8,53,1,53,-100,-100,-100,0,0,100,30.20,30.06,11,-6,18,0.00
2014-3-9,61,1,61,-100,-100,-100,0,0,100,30.22,30.11,14,-9,16,0.00
2014-3-10,69,4,62,-100,-100,-100,0,0,100,30.16,30.02,10,-63,13,0.00
2014-3-11,61,1,61,-100,-100,-100,0,0,100,30.04,29.87,13,-7,15,0.00
2014-3-12,-200,0,200,-100,-100,-100,0,0,100,29.89,29.75,20,13,26,0.00
2014-3-13,-200,0,200,-100,-100,-100,0,0,100,30.22,29.89,17,11,26,0.00
2014-3-14,71,4,55,-100,-100,-100,0,0,100,30.29,30.15,12,-58,17,0.00
2014-3-15,69,2,64,-100,-100,-100,0,0,100,30.21,30.04,14,-17,17,0.00
2014-3-16,75,1,75,-100,-100,-100,0,0,100,30.05,29.79,25,-1,31,0.00
2014-3-17,74,1,74,-100,-100,-100,0,0,100,29.80,29.66,25,2,33,0.00
2014-3-18,-200,0,200,-100,-100,-100,0,0,100,30.05,29.70,24,9,31,0.00
2014-3-19,61,2,61,-100,-100,-100,0,0,100,30.14,30.04,14,-23,17,0.00
2014-3-20,63,1,63,-100,-100,-100,0,0,100,30.11,30.00,15,-8,19,0.00
2014-3-21,77,6,64,-100,-100,-100,0,0,100,30.10,30.00,10,-79,13,0.00
2014-3-22,74,2,71,-100,-100,-100,0,0,100,30.09,30.01,15,-21,21,0.00
2014-3-23,75,3,69,-100,-100,-100,0,0,100,30.07,29.99,16,-31,20,0.00
2014-3-24,70,4,69,-100,-100,-100,0,0,100,30.09,29.93,10,-54,14,0.00
2014-6-4,75,75,75,-100,-100,-100,0,0,100,29.99,29.99,8,8,12,0.00
2014-6-8,-200,0,200,-100,-100,-100,0,0,100,30.01,30.01,2,2,5,0.00
2014-11-7,74,69,63,-100,0,200,0,0,100,30.02,29.94,9,6,12,0.00
2014-11-8,71,56,61,-100,0,200,0,0,100,29.95,29.89,8,6,11,0.00
2014-11-9,65,61,59,-100,0,200,0,0,100,29.96,29.91,7,5,11,0.00
2014-11-10,73,66,62,-100,0,200,0,0,100,29.97,29.95,8,6,12,0.00
2014-11-11,73,69,64,-100,0,200,0,0,100,30.00,29.94,13,9,20,0.00
2014-11-12,75,53,62,-100,0,200,0,0,100,30.09,30.01,6,4,8,0.00
2014-11-13,74,71,68,-100,0,200,0,0,100,30.08,30.02,3,3,4,0.00
2014-11-26,71,59,56,-100,0,200,0,0,100,30.24,29.85,17,7,30,0.00
2014-11-27,67,60,53,-100,0,200,0,0,100,30.31,30.24,9,6,13,0.00
2014-11-28,58,53,46,-100,0,200,0,0,100,30.36,30.26,12,7,18,0.00
2014-11-29,68,53,51,-100,0,200,0,0,100,30.33,30.26,9,5,13,0.00
2014-11-30,75,68,61,-100,0,200,0,0,100,30.30,30.25,6,4,9,0.00
2014-12-1,73,70,64,-100,0,200,0,0,100,30.34,30.21,6,4,10,0.00
2014-12-2,70,67,66,-100,0,200,0,0,100,30.23,30.17,4,3,7,0.00
2014-12-3,74,69,65,-100,0,200,0,0,100,30.18,30.13,6,4,9,0.00
2014-12-4,76,69,64,-100,0,200,0,0,100,30.23,30.14,6,5,10,0.00
2014-12-5,75,70,67,-100,0,200,0,0,100,30.26,30.18,6,4,10,0.00
2014-12-6,76,64,65,-100,0,200,0,0,100,30.22,30.15,7,4,11,0.00
2014-12-7,68,65,63,-100,0,200,0,0,100,30.15,30.07,8,5,10,0.00
2014-12-8,62,61,60,-100,0,200,0,0,100,30.13,30.06,9,5,13,0.00
2014-12-17,71,65,60,-100,0,200,0,0,100,30.23,30.13,7,4,12,0.00
2014-12-18,64,61,55,-100,0,200,0,0,100,30.22,30.12,7,2,8,0.00
2014-12-19,66,61,56,-100,0,200,0,0,100,30.15,30.07,5,3,8,0.00
2014-12-20,72,40,61,-100,0,200,0,0,100,30.13,30.05,6,3,9,0.00
2014-12-21,73,67,64,-100,0,200,0,0,100,30.11,30.02,10,3,13,0.00
2014-12-22,72,69,66,-100,0,200,0,0,100,30.01,29.93,15,9,20,0.00
2014-12-23,78,72,68,-100,0,200,0,0,100,29.96,29.88,13,10,18,0.00
2014-12-29,74,72,69,-100,0,200,0,0,100,30.14,30.08,13,7,14,0.00
2014-12-30,70,69,68,-100,0,200,0,0,100,30.22,30.14,7,4,9,0.00
2014-12-31,65,64,62,-100,0,200,0,0,100,30.29,30.21,10,7,16,0.00
2015-1-1,71,67,60,-100,0,200,0,0,100,30.24,30.17,7,5,10,0.00
2015-1-2,75,69,64,-100,0,200,0,0,100,30.27,30.18,5,4,9,0.00